createdAt,value
2022-11-21T00:01:17.893Z,99605.13
2022-11-21T00:03:44.545Z,99596.72
2022-11-21T00:06:11.139Z,99602.78
2022-11-21T00:08:37.744Z,99589.72
2022-11-21T00:11:04.335Z,99594.19
2022-11-21T00:13:30.935Z,99594.50
2022-11-21T00:16:03.759Z,99597.59
2022-11-21T00:18:30.425Z,99603.72
2022-11-21T00:20:57.072Z,99606.88
2022-11-21T00:23:28.206Z,99602.00
2022-11-21T00:25:54.803Z,99606.44
2022-11-21T00:28:21.400Z,99601.59
2022-11-21T00:30:48.047Z,99598.69
2022-11-21T00:33:14.755Z,99612.84
2022-11-21T00:35:41.444Z,99615.78
2022-11-21T00:38:08.062Z,99616.09
2022-11-21T00:40:34.689Z,99617.97
2022-11-21T00:43:01.326Z,99610.22
2022-11-21T00:45:28.921Z,99610.69
2022-11-21T00:47:55.543Z,99603.72
2022-11-21T00:50:22.211Z,99603.88
2022-11-21T00:52:48.828Z,99606.78
2022-11-21T00:55:15.601Z,99606.81
2022-11-21T00:57:42.215Z,99603.19
2022-11-21T01:00:09.677Z,99599.09
2022-11-21T01:02:36.306Z,99595.94
2022-11-21T01:05:03.175Z,99582.56
2022-11-21T01:07:30.225Z,99586.03
2022-11-21T01:09:56.872Z,99578.09
2022-11-21T01:12:24.041Z,99576.91
2022-11-21T01:14:50.728Z,99571.06
2022-11-21T01:17:17.667Z,99572.56
2022-11-21T01:19:44.798Z,99571.78
2022-11-21T01:22:11.397Z,99573.28
2022-11-21T01:24:38.044Z,99573.41
2022-11-21T01:27:04.711Z,99569.78
2022-11-21T01:29:31.309Z,99566.94
2022-11-21T01:31:57.996Z,99570.50
2022-11-21T01:34:24.746Z,99560.44
2022-11-21T01:36:51.571Z,99557.72
2022-11-21T01:39:18.157Z,99551.22
2022-11-21T01:41:45.822Z,99563.84
2022-11-21T01:44:24.921Z,99557.47
2022-11-21T01:46:53.012Z,99555.50
2022-11-21T01:49:21.630Z,99555.53
2022-11-21T01:51:57.958Z,99560.97
2022-11-21T01:54:32.150Z,99565.03
2022-11-21T01:57:08.255Z,99564.06
2022-11-21T01:59:44.645Z,99567.13
2022-11-21T02:02:15.378Z,99557.25
2022-11-21T02:04:43.530Z,99560.22
2022-11-21T02:07:13.068Z,99549.84
2022-11-21T02:09:42.108Z,99551.72
2022-11-21T02:12:15.566Z,99545.91
2022-11-21T02:15:02.154Z,99550.34
2022-11-21T02:17:30.983Z,99550.41
2022-11-21T02:20:09.226Z,99541.44
2022-11-21T02:23:05.708Z,99541.56
2022-11-21T02:25:36.355Z,99544.00
2022-11-21T02:28:06.269Z,99535.97
2022-11-21T02:30:36.860Z,99540.53
2022-11-21T02:33:03.836Z,99537.59
2022-11-21T02:35:30.587Z,99534.53
2022-11-21T02:38:12.263Z,99539.16
2022-11-21T02:40:48.979Z,99539.72
2022-11-21T02:43:28.383Z,99541.81
2022-11-21T02:45:55.192Z,99542.63
2022-11-21T02:48:21.855Z,99542.00
2022-11-21T02:50:48.525Z,99538.56
2022-11-21T02:53:18.168Z,99539.16
2022-11-21T02:55:45.268Z,99541.69
2022-11-21T02:58:12.575Z,99529.63
2022-11-21T03:00:41.570Z,99534.47
2022-11-21T03:03:08.915Z,99534.72
2022-11-21T03:05:36.048Z,99536.41
2022-11-21T03:08:03.626Z,99526.09
2022-11-21T03:10:30.311Z,99523.59
2022-11-21T03:13:01.042Z,99527.22
2022-11-21T03:15:35.076Z,99526.28
2022-11-21T03:18:02.947Z,99523.28
2022-11-21T03:20:34.672Z,99528.47
2022-11-21T03:23:02.084Z,99531.22
2022-11-21T03:25:29.160Z,99531.63
2022-11-21T03:27:55.906Z,99524.25
2022-11-21T03:30:24.770Z,99524.91
2022-11-21T03:32:54.702Z,99528.97
2022-11-21T03:35:21.315Z,99532.81
2022-11-21T03:37:49.031Z,99525.41
2022-11-21T03:40:15.655Z,99528.06
2022-11-21T03:42:42.343Z,99531.56
2022-11-21T03:45:09.311Z,99533.06
2022-11-21T03:47:36.001Z,99533.22
2022-11-21T03:50:02.682Z,99538.28
2022-11-21T03:52:30.381Z,99535.13
2022-11-21T03:54:57.049Z,99538.53
2022-11-21T03:57:23.669Z,99539.56
2022-11-21T03:59:50.364Z,99539.66
2022-11-21T04:02:17.019Z,99547.34
2022-11-21T04:04:43.641Z,99545.25
2022-11-21T04:07:10.374Z,99542.06
2022-11-21T04:09:37.234Z,99526.41
2022-11-21T04:12:07.672Z,99521.56
2022-11-21T04:14:34.979Z,99521.72
2022-11-21T04:17:01.988Z,99519.38
2022-11-21T04:19:28.815Z,99519.63
2022-11-21T04:21:55.455Z,99522.84
2022-11-21T04:24:22.243Z,99518.88
2022-11-21T04:26:48.885Z,99524.78
2022-11-21T04:29:15.896Z,99521.88
2022-11-21T04:31:42.718Z,99529.25
2022-11-21T04:34:09.397Z,99524.53
2022-11-21T04:36:36.360Z,99529.06
2022-11-21T04:39:04.089Z,99525.22
2022-11-21T04:41:30.707Z,99527.09
2022-11-21T04:43:57.300Z,99526.66
2022-11-21T04:46:24.203Z,99514.22
2022-11-21T04:48:51.229Z,99515.50
2022-11-21T04:51:18.292Z,99518.41
2022-11-21T04:53:45.127Z,99519.22
2022-11-21T04:56:16.145Z,99522.38
2022-11-21T04:58:44.725Z,99529.19
2022-11-21T05:01:11.817Z,99523.59
2022-11-21T05:03:38.942Z,99514.59
2022-11-21T05:06:05.916Z,99514.53
2022-11-21T05:08:32.565Z,99512.66
2022-11-21T05:11:18.091Z,99512.19
2022-11-21T05:13:44.851Z,99516.72
2022-11-21T05:16:11.488Z,99528.06
2022-11-21T05:18:38.356Z,99525.41
2022-11-21T05:21:05.861Z,99533.41
2022-11-21T05:23:32.547Z,99521.34
2022-11-21T05:25:59.134Z,99527.25
2022-11-21T05:28:25.828Z,99524.66
2022-11-21T05:30:52.495Z,99518.91
2022-11-21T05:33:19.275Z,99520.31
2022-11-21T05:35:46.441Z,99522.47
2022-11-21T05:38:13.125Z,99518.91
2022-11-21T05:40:40.011Z,99526.09
2022-11-21T05:43:25.705Z,99518.81
2022-11-21T05:45:52.907Z,99522.56
2022-11-21T05:48:19.589Z,99519.97
2022-11-21T05:50:49.726Z,99517.53
2022-11-21T05:53:17.519Z,99525.41
2022-11-21T05:55:44.567Z,99524.25
2022-11-21T05:58:11.505Z,99520.13
2022-11-21T06:00:38.547Z,99510.16
2022-11-21T06:03:25.069Z,99519.31
2022-11-21T06:05:52.021Z,99510.16
2022-11-21T06:08:19.135Z,99520.94
2022-11-21T06:10:45.809Z,99525.97
2022-11-21T06:13:24.530Z,99522.72
2022-11-21T06:15:58.842Z,99522.31
2022-11-21T06:18:26.714Z,99516.00
2022-11-21T06:20:53.769Z,99529.84
2022-11-21T06:23:20.895Z,99532.56
2022-11-21T06:25:47.487Z,99521.81
2022-11-21T06:28:14.260Z,99533.88
2022-11-21T06:30:40.877Z,99535.28
2022-11-21T06:33:07.991Z,99527.59
2022-11-21T06:35:38.645Z,99531.00
2022-11-21T06:38:05.396Z,99531.06
2022-11-21T06:40:32.534Z,99532.03
2022-11-21T06:42:59.116Z,99534.16
2022-11-21T06:45:26.220Z,99545.56
2022-11-21T06:47:52.859Z,99537.78
2022-11-21T06:50:19.767Z,99536.47
2022-11-21T06:52:46.577Z,99528.47
2022-11-21T06:55:14.157Z,99530.66
2022-11-21T06:57:40.817Z,99527.09
2022-11-21T07:00:08.230Z,99540.72
2022-11-21T07:02:34.852Z,99538.84
2022-11-21T07:05:01.554Z,99536.97
2022-11-21T07:07:30.361Z,99534.88
2022-11-21T07:09:57.135Z,99533.41
2022-11-21T07:12:42.451Z,99539.81
2022-11-21T07:15:10.253Z,99539.09
2022-11-21T07:17:37.044Z,99547.84
2022-11-21T07:20:04.023Z,99548.09
2022-11-21T07:22:30.654Z,99545.91
2022-11-21T07:24:57.394Z,99544.44
2022-11-21T07:27:24.088Z,99540.72
2022-11-21T07:29:51.916Z,99552.38
2022-11-21T07:32:18.787Z,99557.00
2022-11-21T07:34:45.397Z,99556.13
2022-11-21T07:37:12.126Z,99557.56
2022-11-21T07:39:41.578Z,99549.94
2022-11-21T07:42:08.174Z,99554.63
2022-11-21T07:44:36.310Z,99564.84
2022-11-21T07:47:03.017Z,99561.53
2022-11-21T07:49:29.977Z,99571.91
2022-11-21T07:51:56.924Z,99579.03
2022-11-21T07:54:23.624Z,99574.97
2022-11-21T07:56:51.332Z,99571.25
2022-11-21T07:59:19.186Z,99569.81
2022-11-21T08:01:45.959Z,99575.47
2022-11-21T08:04:12.777Z,99577.88
2022-11-21T08:06:39.492Z,99570.19
2022-11-21T08:09:06.101Z,99572.47
2022-11-21T08:11:32.755Z,99572.97
2022-11-21T08:13:59.649Z,99569.81
2022-11-21T08:16:28.020Z,99573.13
2022-11-21T08:18:54.816Z,99575.66
2022-11-21T08:21:21.418Z,99577.06
2022-11-21T08:23:48.592Z,99570.28
2022-11-21T08:26:15.199Z,99563.91
2022-11-21T08:28:41.777Z,99569.56
2022-11-21T08:31:08.934Z,99569.97
2022-11-21T08:33:35.805Z,99571.44
2022-11-21T08:36:06.917Z,99564.94
2022-11-21T08:38:33.833Z,99561.53
2022-11-21T08:41:18.848Z,99568.44
2022-11-21T08:43:45.673Z,99562.66
2022-11-21T08:46:12.491Z,99562.59
2022-11-21T08:48:39.157Z,99553.69
2022-11-21T08:51:05.790Z,99554.97
2022-11-21T08:53:32.513Z,99558.44
2022-11-21T08:56:04.005Z,99548.56
2022-11-21T08:58:31.278Z,99552.84
2022-11-21T09:01:00.385Z,99553.19
2022-11-21T09:03:31.030Z,99553.97
2022-11-21T09:05:59.236Z,99555.47
2022-11-21T09:08:26.448Z,99541.63
2022-11-21T09:10:53.308Z,99556.38
2022-11-21T09:13:20.287Z,99550.66
2022-11-21T09:16:09.213Z,99546.56
2022-11-21T09:18:36.265Z,99543.34
2022-11-21T09:21:02.938Z,99542.19
2022-11-21T09:23:29.551Z,99541.16
2022-11-21T09:25:56.188Z,99538.78
2022-11-21T09:28:22.776Z,99533.75
2022-11-21T09:30:49.389Z,99535.47
2022-11-21T09:33:19.516Z,99529.34
2022-11-21T09:35:46.099Z,99541.19
2022-11-21T09:38:12.818Z,99535.00
2022-11-21T09:40:46.087Z,99530.59
2022-11-21T09:43:35.992Z,99527.59
2022-11-21T09:46:09.998Z,99514.31
2022-11-21T09:48:48.633Z,99507.13
2022-11-21T09:51:18.467Z,99512.25
2022-11-21T09:54:10.117Z,99515.72
2022-11-21T09:56:40.939Z,99507.34
2022-11-21T09:59:32.837Z,99513.81
2022-11-21T10:01:59.732Z,99510.72
2022-11-21T10:04:27.555Z,99504.59
2022-11-21T10:07:11.258Z,99498.91
2022-11-21T10:09:59.405Z,99488.22
2022-11-21T10:12:55.312Z,99488.47
2022-11-21T10:15:22.279Z,99478.03
2022-11-21T10:18:19.235Z,99474.72
2022-11-21T10:20:54.870Z,99483.38
2022-11-21T10:23:49.632Z,99485.13
2022-11-21T10:26:21.934Z,99475.44
2022-11-21T10:28:58.287Z,99473.56
2022-11-21T10:31:30.894Z,99471.16
2022-11-21T10:34:03.220Z,99461.44
2022-11-21T10:36:36.129Z,99460.06
2022-11-21T10:39:12.933Z,99458.59
2022-11-21T10:41:48.380Z,99450.56
2022-11-21T10:44:43.488Z,99446.75
2022-11-21T10:47:27.965Z,99441.50
2022-11-21T10:50:18.775Z,99430.31
2022-11-21T10:52:49.884Z,99427.16
2022-11-21T10:55:18.408Z,99418.38
2022-11-21T10:57:49.560Z,99409.88
2022-11-21T11:00:27.347Z,99410.44
2022-11-21T11:02:57.257Z,99408.72
2022-11-21T11:05:29.018Z,99406.13
2022-11-21T11:08:15.046Z,99397.31
2022-11-21T11:11:02.259Z,99400.03
2022-11-21T11:13:46.213Z,99396.50
2022-11-21T11:16:21.230Z,99383.88
2022-11-21T11:18:57.392Z,99378.03
2022-11-21T11:21:46.479Z,99372.88
2022-11-21T11:24:13.067Z,99367.06
2022-11-21T11:26:49.473Z,99357.06
2022-11-21T11:29:20.495Z,99342.03
2022-11-21T11:31:53.491Z,99341.03
2022-11-21T11:34:20.752Z,99331.53
2022-11-21T11:37:04.145Z,99332.09
2022-11-21T11:40:01.324Z,99334.78
2022-11-21T11:43:07.045Z,99326.69
2022-11-21T11:46:15.047Z,99323.22
2022-11-21T11:49:03.603Z,99322.38
2022-11-21T11:51:39.936Z,99314.84
2022-11-21T11:54:17.591Z,99297.13
2022-11-21T11:56:45.490Z,99300.88
2022-11-21T11:59:12.114Z,99298.19
2022-11-21T12:02:01.099Z,99293.91
2022-11-21T12:04:33.769Z,99298.91
2022-11-21T12:10:02.371Z,99288.97
2022-11-21T12:12:43.677Z,99286.81
2022-11-21T12:15:32.590Z,99277.50
2022-11-21T12:18:17.983Z,99267.75
2022-11-21T12:20:59.892Z,99270.50
2022-11-21T12:23:51.418Z,99272.38
2022-11-21T12:27:05.976Z,99259.44
2022-11-21T12:29:56.711Z,99260.19
2022-11-21T12:32:45.252Z,99265.56
2022-11-21T12:35:40.628Z,99253.19
2022-11-21T12:38:44.571Z,99256.38
2022-11-21T12:41:41.551Z,99252.41
2022-11-21T12:44:47.051Z,99243.59
2022-11-21T12:47:55.453Z,99245.66
2022-11-21T12:50:51.475Z,99219.13
2022-11-21T12:53:51.772Z,99210.81
2022-11-21T12:56:32.503Z,99215.66
2022-11-21T12:59:00.903Z,99215.09
2022-11-21T13:01:43.952Z,99200.06
2022-11-21T13:04:18.131Z,99194.97
2022-11-21T13:06:48.192Z,99187.50
2022-11-21T13:09:22.153Z,99182.66
2022-11-21T13:12:06.178Z,99173.84
2022-11-21T13:14:54.973Z,99173.84
2022-11-21T13:17:28.500Z,99166.06
2022-11-21T13:20:22.821Z,99163.69
2022-11-21T13:22:55.152Z,99154.75
2022-11-21T13:25:43.860Z,99144.91
2022-11-21T13:28:13.195Z,99145.94
2022-11-21T13:30:56.800Z,99145.97
2022-11-21T13:33:36.074Z,99147.31
2022-11-21T13:36:13.349Z,99142.72
2022-11-21T13:38:55.410Z,99136.31
2022-11-21T13:41:53.179Z,99133.06
2022-11-21T13:44:32.186Z,99127.72
2022-11-21T13:47:20.345Z,99127.47
2022-11-21T13:50:07.858Z,99116.41
2022-11-21T13:52:45.237Z,99108.59
2022-11-21T13:55:39.421Z,99100.03
2022-11-21T13:58:24.407Z,99090.88
2022-11-21T14:01:01.231Z,99095.72
2022-11-21T14:03:38.110Z,99086.66
2022-11-21T14:06:13.624Z,99076.72
2022-11-21T14:08:40.693Z,99073.22
2022-11-21T14:11:22.217Z,99074.50
2022-11-21T14:13:49.749Z,99067.53
2022-11-21T14:16:41.256Z,99068.38
2022-11-21T14:19:14.870Z,99055.50
2022-11-21T14:21:46.338Z,99057.88
2022-11-21T14:24:18.704Z,99053.34
2022-11-21T14:26:53.319Z,99056.31
2022-11-21T14:29:26.673Z,99060.84
2022-11-21T14:31:54.162Z,99060.84
2022-11-21T14:34:28.635Z,99052.81
2022-11-21T14:36:59.111Z,99049.84
2022-11-21T14:39:38.763Z,99048.53
2022-11-21T14:42:14.937Z,99041.00
2022-11-21T14:44:41.565Z,99038.03
2022-11-21T14:47:26.231Z,99023.31
2022-11-21T14:49:56.096Z,99018.47
2022-11-21T14:52:30.414Z,99017.13
2022-11-21T14:57:48.107Z,98995.13
2022-11-21T15:03:04.183Z,98979.84
2022-11-21T15:06:04.073Z,98966.97
2022-11-21T15:08:55.804Z,98952.50
2022-11-21T15:11:11.976Z,98957.59
2022-11-21T15:14:06.479Z,98953.84
2022-11-21T15:16:26.839Z,98943.13
2022-11-21T15:18:53.534Z,98940.16
2022-11-21T15:21:20.347Z,98926.50
2022-11-21T15:23:47.752Z,98917.03
2022-11-21T15:26:35.578Z,98907.94
2022-11-21T15:29:02.813Z,98907.41
2022-11-21T15:31:29.647Z,98896.72
2022-11-21T15:37:05.745Z,98878.44
2022-11-21T15:39:33.245Z,98866.41
2022-11-21T15:42:33.813Z,98862.38
2022-11-21T15:45:03.549Z,98839.59
2022-11-21T15:47:30.816Z,98833.72
2022-11-21T15:49:57.842Z,98837.75
2022-11-21T15:52:24.728Z,98812.53
2022-11-21T15:54:51.316Z,98812.47
2022-11-21T15:59:50.400Z,98817.38
2022-11-21T16:02:17.253Z,98806.03
2022-11-21T16:04:43.937Z,98800.97
2022-11-21T16:07:10.756Z,98790.28
2022-11-21T16:09:38.630Z,98794.28
2022-11-21T16:12:05.434Z,98794.56
2022-11-21T16:14:32.142Z,98773.19
2022-11-21T16:16:58.819Z,98775.31
2022-11-21T16:19:25.904Z,98767.59
2022-11-21T16:21:53.703Z,98753.91
2022-11-21T16:24:20.759Z,98753.16
2022-11-21T16:26:49.463Z,98747.75
2022-11-21T16:29:16.073Z,98753.41
2022-11-21T16:31:42.807Z,98733.84
2022-11-21T16:34:09.463Z,98727.94
2022-11-21T16:36:36.260Z,98711.59
2022-11-21T16:39:08.670Z,98727.69
2022-11-21T16:41:36.953Z,98727.97
2022-11-21T16:44:03.922Z,98734.13
2022-11-21T16:46:30.939Z,98733.34
2022-11-21T16:49:00.591Z,98753.94
2022-11-21T16:51:28.039Z,98748.63
2022-11-21T16:53:56.332Z,98743.53
2022-11-21T16:56:23.630Z,98742.19
2022-11-21T16:58:50.465Z,98726.66
2022-11-21T17:01:20.282Z,98707.91
2022-11-21T17:03:49.242Z,98692.88
2022-11-21T17:06:18.631Z,98688.28
2022-11-21T17:08:47.120Z,98682.09
2022-11-21T17:11:22.915Z,98686.69
2022-11-21T17:13:51.144Z,98690.78
2022-11-21T17:16:19.653Z,98689.44
2022-11-21T17:18:46.603Z,98689.19
2022-11-21T17:21:15.780Z,98693.72
2022-11-21T17:23:44.537Z,98705.50
2022-11-21T17:26:13.771Z,98700.91
2022-11-21T17:28:45.190Z,98700.69
2022-11-21T17:31:15.215Z,98692.59
2022-11-21T17:33:42.941Z,98679.78
2022-11-21T17:36:14.739Z,98670.16
2022-11-21T17:38:47.110Z,98681.69
2022-11-21T17:41:16.825Z,98710.88
2022-11-21T17:43:44.843Z,98714.59
2022-11-21T17:46:19.937Z,98696.38
2022-11-21T17:48:54.572Z,98693.19
2022-11-21T17:51:25.437Z,98694.53
2022-11-21T17:53:52.936Z,98675.25
2022-11-21T17:56:26.032Z,98665.84
2022-11-21T17:58:52.986Z,98664.78
2022-11-21T18:01:20.579Z,98667.47
2022-11-21T18:03:53.228Z,98673.13
2022-11-21T18:06:20.338Z,98661.88
2022-11-21T18:08:48.874Z,98655.94
2022-11-21T18:11:19.201Z,98651.13
2022-11-21T18:13:46.383Z,98643.88
2022-11-21T18:16:15.447Z,98650.88
2022-11-21T18:18:42.436Z,98654.59
2022-11-21T18:21:12.030Z,98641.75
2022-11-21T18:23:39.285Z,98627.78
2022-11-21T18:26:08.591Z,98624.00
2022-11-21T18:28:35.221Z,98624.03
2022-11-21T18:31:10.068Z,98617.06
2022-11-21T18:33:37.782Z,98639.34
2022-11-21T18:36:06.249Z,98646.84
2022-11-21T18:38:49.296Z,98652.09
2022-11-21T18:41:28.246Z,98655.44
2022-11-21T18:43:59.901Z,98670.16
2022-11-21T18:46:28.821Z,98679.00
2022-11-21T18:49:06.256Z,98684.63
2022-11-21T18:51:36.448Z,98688.34
2022-11-21T18:54:07.105Z,98677.66
2022-11-21T18:56:34.780Z,98674.16
2022-11-21T18:59:03.248Z,98678.72
2022-11-21T19:01:31.676Z,98661.03
2022-11-21T19:03:59.141Z,98654.56
2022-11-21T19:06:27.148Z,98651.63
2022-11-21T19:08:55.632Z,98628.28
2022-11-21T19:11:24.563Z,98625.59
2022-11-21T19:13:52.854Z,98611.97
2022-11-21T19:16:24.259Z,98607.50
2022-11-21T19:19:18.669Z,98611.75
2022-11-21T19:21:38.959Z,98608.00
2022-11-21T19:24:16.431Z,98592.78
2022-11-21T19:26:43.166Z,98591.44
2022-11-21T19:29:10.894Z,98585.03
2022-11-21T19:31:44.094Z,98590.66
2022-11-21T19:34:13.691Z,98585.56
2022-11-21T19:36:40.745Z,98581.16
2022-11-21T19:39:07.654Z,98578.56
2022-11-21T19:41:34.405Z,98580.09
2022-11-21T19:44:02.170Z,98567.28
2022-11-21T19:46:31.582Z,98564.06
2022-11-21T19:48:59.133Z,98574.75
2022-11-21T19:51:32.141Z,98561.31
2022-11-21T19:53:59.102Z,98570.28
2022-11-21T19:56:26.241Z,98566.75
2022-11-21T19:58:55.093Z,98571.72
2022-11-21T20:01:27.648Z,98573.13
2022-11-21T20:03:58.752Z,98570.56
2022-11-21T20:06:28.105Z,98568.41
2022-11-21T20:09:00.301Z,98568.94
2022-11-21T20:11:28.723Z,98565.50
2022-11-21T20:13:55.399Z,98560.16
2022-11-21T20:16:30.414Z,98555.91
2022-11-21T20:19:02.660Z,98557.97
2022-11-21T20:21:30.222Z,98543.50
2022-11-21T20:24:00.650Z,98546.47
2022-11-21T20:26:27.787Z,98546.44
2022-11-21T20:28:54.754Z,98540.03
2022-11-21T20:31:24.848Z,98542.44
2022-11-21T20:33:53.572Z,98547.06
2022-11-21T20:36:36.321Z,98551.06
2022-11-21T20:39:08.731Z,98548.16
2022-11-21T20:41:36.848Z,98540.59
2022-11-21T20:46:55.908Z,98552.94
2022-11-21T20:49:22.638Z,98542.19
2022-11-21T20:54:37.903Z,98543.53
2022-11-21T20:57:04.493Z,98548.03
2022-11-21T20:59:31.441Z,98545.41
2022-11-21T21:01:58.320Z,98543.59
2022-11-21T21:04:25.227Z,98533.66
2022-11-21T21:06:51.949Z,98533.44
2022-11-21T21:09:18.544Z,98538.25
2022-11-21T21:11:53.373Z,98536.66
2022-11-21T21:14:23.510Z,98524.06
2022-11-21T21:16:50.466Z,98521.63
2022-11-21T21:19:17.992Z,98523.78
2022-11-21T21:21:44.753Z,98529.66
2022-11-21T21:24:12.535Z,98526.66
2022-11-21T21:26:43.181Z,98525.94
2022-11-21T21:29:12.200Z,98524.50
2022-11-21T21:31:38.976Z,98528.63
2022-11-21T21:34:05.740Z,98531.53
2022-11-21T21:36:32.832Z,98528.63
2022-11-21T21:39:00.425Z,98524.63
2022-11-21T21:41:28.742Z,98519.28
2022-11-21T21:43:57.136Z,98518.72
2022-11-21T21:46:26.139Z,98521.41
2022-11-21T21:48:57.548Z,98523.28
2022-11-21T21:51:26.932Z,98514.97
2022-11-21T21:53:54.533Z,98510.44
2022-11-21T21:56:22.778Z,98512.34
2022-11-21T21:58:50.319Z,98505.91
2022-11-21T22:01:20.071Z,98499.44
2022-11-21T22:03:47.647Z,98501.91
2022-11-21T22:06:18.384Z,98499.22
2022-11-21T22:08:46.634Z,98498.69
2022-11-21T22:11:14.235Z,98504.31
2022-11-21T22:13:45.913Z,98506.19
2022-11-21T22:16:13.770Z,98516.09
2022-11-21T22:18:41.058Z,98515.53
2022-11-21T22:21:16.821Z,98512.34
2022-11-21T22:24:02.976Z,98512.34
2022-11-21T22:26:32.076Z,98510.19
2022-11-21T22:28:58.708Z,98505.66
2022-11-21T22:31:25.383Z,98502.19
2022-11-21T22:33:52.375Z,98506.97
2022-11-21T22:36:19.558Z,98510.44
2022-11-21T22:38:46.470Z,98510.44
2022-11-21T22:41:17.299Z,98507.25
2022-11-21T22:43:49.919Z,98505.38
2022-11-21T22:46:16.860Z,98511.25
2022-11-21T22:48:43.424Z,98504.31
2022-11-21T22:51:13.810Z,98493.88
2022-11-21T22:53:40.972Z,98497.34
2022-11-21T22:56:10.532Z,98487.19
2022-11-21T22:58:39.621Z,98484.78
2022-11-21T23:01:12.400Z,98470.03
2022-11-21T23:03:40.099Z,98481.03
2022-11-21T23:06:11.085Z,98470.31
2022-11-21T23:08:38.317Z,98465.50
2022-11-21T23:11:14.720Z,98458.03
2022-11-21T23:13:44.449Z,98463.94
2022-11-21T23:16:11.824Z,98459.38
2022-11-21T23:18:38.974Z,98471.91
2022-11-21T23:21:06.389Z,98474.63
2022-11-21T23:23:33.336Z,98469.03
2022-11-21T23:26:00.068Z,98455.13
2022-11-21T23:28:26.925Z,98455.66
2022-11-21T23:30:53.548Z,98448.72
2022-11-21T23:33:20.392Z,98461.28
2022-11-21T23:35:47.605Z,98458.59
2022-11-21T23:38:16.264Z,98455.13
2022-11-21T23:40:45.979Z,98463.66
2022-11-21T23:43:13.745Z,98466.34
2022-11-21T23:45:40.580Z,98468.94
2022-11-21T23:48:07.215Z,98477.50
2022-11-21T23:50:33.790Z,98474.91
2022-11-21T23:53:00.504Z,98474.38
2022-11-21T23:55:27.199Z,98465.53
2022-11-21T23:57:53.852Z,98466.88
